Terminal Aerodrome Forecast
Issued by NWS

Home | Current Version | Previous Version | Text Only | Print | Product List | Glossary On
Versions: 1 2 3 4 5 6 7 8 9 10 11 12 13 14 15
000
FTUS44 KCRP 281100 RRA
TAFALI
TAF
KALI 281153Z 2812/2912 02005KT P6SM SCT025 BKN120
     FM281600 10012KT P6SM BKN035 BKN120
      TEMPO 2816/2820 4SM TSRA BKN028CB
     FM282000 10012G18KT P6SM BKN040 BKN120
      TEMPO 2820/2824 5SM -TSRA BKN035CB
     FM290000 11008KT P6SM BKN035=

USA.gov is the U.S. government's official web portal to all federal, state and local government web resources and services.